sensor_id;sensor_type;location;lat;lon;timestamp;pressure;altitude;pressure_sealevel;temperature;humidity
24610;BME280;12758;47.890;11.694;2023-10-13T00:01:20;94083.97;;;18.96;67.89
24610;BME280;12758;47.890;11.694;2023-10-13T00:03:46;94088.00;;;19.02;71.66
24610;BME280;12758;47.890;11.694;2023-10-13T00:06:12;94087.56;;;19.00;71.85
24610;BME280;12758;47.890;11.694;2023-10-13T00:08:38;94078.16;;;19.01;71.57
24610;BME280;12758;47.890;11.694;2023-10-13T00:11:05;94078.47;;;18.96;71.16
24610;BME280;12758;47.890;11.694;2023-10-13T00:13:32;94071.03;;;18.97;71.14
24610;BME280;12758;47.890;11.694;2023-10-13T00:16:08;94073.41;;;18.98;70.96
24610;BME280;12758;47.890;11.694;2023-10-13T00:18:35;94076.22;;;18.72;70.82
24610;BME280;12758;47.890;11.694;2023-10-13T00:21:07;94077.75;;;18.69;71.83
24610;BME280;12758;47.890;11.694;2023-10-13T00:23:38;94071.56;;;18.76;68.22
24610;BME280;12758;47.890;11.694;2023-10-13T00:26:04;94075.59;;;18.82;71.45
24610;BME280;12758;47.890;11.694;2023-10-13T00:28:35;94079.53;;;18.84;67.70
24610;BME280;12758;47.890;11.694;2023-10-13T00:31:09;94074.41;;;18.83;69.20
24610;BME280;12758;47.890;11.694;2023-10-13T00:33:36;94072.41;;;18.80;68.99
24610;BME280;12758;47.890;11.694;2023-10-13T00:36:03;94056.72;;;18.84;71.35
24610;BME280;12758;47.890;11.694;2023-10-13T00:38:30;94065.41;;;18.86;71.62
24610;BME280;12758;47.890;11.694;2023-10-13T00:40:57;94064.66;;;18.89;71.30
24610;BME280;12758;47.890;11.694;2023-10-13T00:43:29;94068.53;;;18.84;68.00
24610;BME280;12758;47.890;11.694;2023-10-13T00:46:01;94066.16;;;18.83;70.74
24610;BME280;12758;47.890;11.694;2023-10-13T00:48:36;94060.53;;;18.72;69.02
24610;BME280;12758;47.890;11.694;2023-10-13T00:51:09;94068.47;;;18.81;70.75
24610;BME280;12758;47.890;11.694;2023-10-13T00:53:43;94066.47;;;18.78;70.94
24610;BME280;12758;47.890;11.694;2023-10-13T00:56:10;94062.41;;;18.68;65.03
24610;BME280;12758;47.890;11.694;2023-10-13T00:58:44;94065.31;;;18.49;67.42
24610;BME280;12758;47.890;11.694;2023-10-13T01:01:12;94079.53;;;18.54;70.82
24610;BME280;12758;47.890;11.694;2023-10-13T01:03:47;94071.88;;;18.41;70.73
24610;BME280;12758;47.890;11.694;2023-10-13T01:06:15;94060.31;;;18.58;70.66
24610;BME280;12758;47.890;11.694;2023-10-13T01:08:44;94066.72;;;18.66;70.80
24610;BME280;12758;47.890;11.694;2023-10-13T01:11:10;94067.53;;;18.70;70.60
24610;BME280;12758;47.890;11.694;2023-10-13T01:13:36;94074.69;;;18.74;70.47
24610;BME280;12758;47.890;11.694;2023-10-13T01:16:02;94069.13;;;18.71;70.31
24610;BME280;12758;47.890;11.694;2023-10-13T01:18:33;94073.91;;;18.74;70.43
24610;BME280;12758;47.890;11.694;2023-10-13T01:21:05;94066.81;;;18.73;70.02
24610;BME280;12758;47.890;11.694;2023-10-13T01:23:33;94059.72;;;18.72;69.76
24610;BME280;12758;47.890;11.694;2023-10-13T01:26:03;94067.25;;;18.75;69.80
24610;BME280;12758;47.890;11.694;2023-10-13T01:28:31;94065.28;;;18.75;69.67
24610;BME280;12758;47.890;11.694;2023-10-13T01:31:10;94066.06;;;18.76;69.66
24610;BME280;12758;47.890;11.694;2023-10-13T01:33:37;94050.31;;;18.73;70.01
24610;BME280;12758;47.890;11.694;2023-10-13T01:36:04;94056.53;;;18.70;69.57
24610;BME280;12758;47.890;11.694;2023-10-13T01:38:33;94063.63;;;18.71;69.93
24610;BME280;12758;47.890;11.694;2023-10-13T01:41:05;94055.38;;;18.71;69.92
24610;BME280;12758;47.890;11.694;2023-10-13T01:43:30;94053.38;;;18.68;69.70
24610;BME280;12758;47.890;11.694;2023-10-13T01:45:56;94057.72;;;18.69;69.87
24610;BME280;12758;47.890;11.694;2023-10-13T01:48:22;94056.53;;;18.70;69.90
24610;BME280;12758;47.890;11.694;2023-10-13T01:50:48;94052.22;;;18.69;69.93
24610;BME280;12758;47.890;11.694;2023-10-13T01:53:21;94055.72;;;18.66;69.85
24610;BME280;12758;47.890;11.694;2023-10-13T01:55:48;94051.38;;;18.65;70.13
24610;BME280;12758;47.890;11.694;2023-10-13T01:58:15;94048.63;;;18.65;70.20
24610;BME280;12758;47.890;11.694;2023-10-13T02:00:42;94051.72;;;18.59;70.39
24610;BME280;12758;47.890;11.694;2023-10-13T02:03:09;94058.03;;;18.63;70.29
24610;BME280;12758;47.890;11.694;2023-10-13T02:05:41;94046.22;;;18.59;69.65
24610;BME280;12758;47.890;11.694;2023-10-13T02:08:13;94058.78;;;18.60;70.57
24610;BME280;12758;47.890;11.694;2023-10-13T02:10:44;94054.47;;;18.59;70.46
24610;BME280;12758;47.890;11.694;2023-10-13T02:13:13;94055.59;;;18.58;70.94
24610;BME280;12758;47.890;11.694;2023-10-13T02:15:42;94057.97;;;18.56;70.81
24610;BME280;12758;47.890;11.694;2023-10-13T02:18:10;94058.75;;;18.57;70.83
24610;BME280;12758;47.890;11.694;2023-10-13T02:20:36;94048.50;;;18.54;71.17
24610;BME280;12758;47.890;11.694;2023-10-13T02:23:09;94050.84;;;18.55;70.98
24610;BME280;12758;47.890;11.694;2023-10-13T02:25:36;94045.28;;;18.48;70.09
24610;BME280;12758;47.890;11.694;2023-10-13T02:28:09;94048.44;;;18.50;71.25
24610;BME280;12758;47.890;11.694;2023-10-13T02:30:38;94052.13;;;18.31;72.39
24610;BME280;12758;47.890;11.694;2023-10-13T02:33:04;94047.75;;;18.27;72.51
24610;BME280;12758;47.890;11.694;2023-10-13T02:35:32;94052.81;;;18.25;72.32
24610;BME280;12758;47.890;11.694;2023-10-13T02:38:07;94046.16;;;18.26;72.76
24610;BME280;12758;47.890;11.694;2023-10-13T02:40:37;94047.97;;;18.14;72.17
24610;BME280;12758;47.890;11.694;2023-10-13T02:43:04;94049.25;;;18.21;72.94
24610;BME280;12758;47.890;11.694;2023-10-13T02:45:31;94047.06;;;18.07;72.60
24610;BME280;12758;47.890;11.694;2023-10-13T02:47:58;94053.13;;;18.20;73.40
24610;BME280;12758;47.890;11.694;2023-10-13T02:50:40;94052.81;;;18.25;72.95
24610;BME280;12758;47.890;11.694;2023-10-13T02:53:09;94048.50;;;18.24;72.80
24610;BME280;12758;47.890;11.694;2023-10-13T02:55:39;94045.81;;;18.27;72.84
24610;BME280;12758;47.890;11.694;2023-10-13T02:58:14;94042.25;;;18.27;72.78
24610;BME280;12758;47.890;11.694;2023-10-13T03:00:40;94042.66;;;18.29;72.74
24610;BME280;12758;47.890;11.694;2023-10-13T03:03:07;94041.53;;;18.30;72.88
24610;BME280;12758;47.890;11.694;2023-10-13T03:05:34;94033.72;;;18.05;72.52
24610;BME280;12758;47.890;11.694;2023-10-13T03:08:01;94040.56;;;18.19;73.34
24610;BME280;12758;47.890;11.694;2023-10-13T03:10:30;94041.00;;;18.21;73.24
24610;BME280;12758;47.890;11.694;2023-10-13T03:12:56;94043.31;;;18.19;73.33
24610;BME280;12758;47.890;11.694;2023-10-13T03:15:21;94036.25;;;18.18;73.30
24610;BME280;12758;47.890;11.694;2023-10-13T03:17:54;94047.25;;;18.18;73.54
24610;BME280;12758;47.890;11.694;2023-10-13T03:20:21;94044.06;;;18.15;73.44
24610;BME280;12758;47.890;11.694;2023-10-13T03:22:52;94036.19;;;18.14;73.46
24610;BME280;12758;47.890;11.694;2023-10-13T03:25:18;94047.94;;;18.11;73.42
24610;BME280;12758;47.890;11.694;2023-10-13T03:27:49;94039.66;;;18.07;73.50
24610;BME280;12758;47.890;11.694;2023-10-13T03:30:27;94038.03;;;18.06;73.39
24610;BME280;12758;47.890;11.694;2023-10-13T03:33:02;94044.72;;;18.05;73.57
24610;BME280;12758;47.890;11.694;2023-10-13T03:35:34;94047.81;;;18.04;73.36
24610;BME280;12758;47.890;11.694;2023-10-13T03:38:09;94041.53;;;18.03;73.26
24610;BME280;12758;47.890;11.694;2023-10-13T03:40:43;94037.56;;;18.01;73.33
24610;BME280;12758;47.890;11.694;2023-10-13T03:43:14;94052.47;;;18.00;73.36
24610;BME280;12758;47.890;11.694;2023-10-13T03:45:44;94050.09;;;17.98;73.08
24610;BME280;12758;47.890;11.694;2023-10-13T03:48:14;94047.72;;;17.97;73.35
24610;BME280;12758;47.890;11.694;2023-10-13T03:50:55;94044.56;;;17.95;73.37
24610;BME280;12758;47.890;11.694;2023-10-13T03:53:28;94041.38;;;17.92;73.10
24610;BME280;12758;47.890;11.694;2023-10-13T03:55:59;94046.88;;;17.92;73.03
24610;BME280;12758;47.890;11.694;2023-10-13T03:58:33;94047.22;;;17.91;72.99
24610;BME280;12758;47.890;11.694;2023-10-13T04:01:00;94042.91;;;17.90;73.12
24610;BME280;12758;47.890;11.694;2023-10-13T04:03:27;94052.72;;;17.91;73.06
24610;BME280;12758;47.890;11.694;2023-10-13T04:06:05;94042.47;;;17.88;73.04
24610;BME280;12758;47.890;11.694;2023-10-13T04:08:32;94043.66;;;17.87;73.02
24610;BME280;12758;47.890;11.694;2023-10-13T04:11:36;94046.00;;;17.85;72.87
24610;BME280;12758;47.890;11.694;2023-10-13T04:14:25;94038.53;;;17.85;72.66
24610;BME280;12758;47.890;11.694;2023-10-13T04:17:10;94036.16;;;17.84;72.69
24610;BME280;12758;47.890;11.694;2023-10-13T04:19:39;94034.56;;;17.83;72.88
24610;BME280;12758;47.890;11.694;2023-10-13T04:22:26;94032.56;;;17.80;72.96
24610;BME280;12758;47.890;11.694;2023-10-13T04:25:13;94038.06;;;17.80;72.68
24610;BME280;12758;47.890;11.694;2023-10-13T04:28:00;94029.38;;;17.78;nan
24610;BME280;12758;47.890;11.694;2023-10-13T04:30:41;94035.19;;;17.73;72.53
24610;BME280;12758;47.890;11.694;2023-10-13T04:33:23;94025.78;;;17.74;72.67
24610;BME280;12758;47.890;11.694;2023-10-13T04:36:02;94024.59;;;17.75;72.85
24610;BME280;12758;47.890;11.694;2023-10-13T04:38:40;94025.34;;;17.72;72.57
24610;BME280;12758;47.890;11.694;2023-10-13T04:41:21;94027.69;;;17.69;72.60
24610;BME280;12758;47.890;11.694;2023-10-13T04:43:48;94025.34;;;17.72;72.63
24610;BME280;12758;47.890;11.694;2023-10-13T04:46:30;94023.75;;;17.70;72.27
24610;BME280;12758;47.890;11.694;2023-10-13T04:49:20;94019.84;;;17.72;72.76
24610;BME280;12758;47.890;11.694;2023-10-13T04:51:55;94009.59;;;17.68;72.41
24610;BME280;12758;47.890;11.694;2023-10-13T04:54:25;94006.44;;;17.66;72.31
24610;BME280;12758;47.890;11.694;2023-10-13T04:56:51;94015.81;;;17.65;72.66
24610;BME280;12758;47.890;11.694;2023-10-13T04:59:36;94011.84;;;17.59;72.77
24610;BME280;12758;47.890;11.694;2023-10-13T05:02:03;94006.34;;;17.59;72.23
24610;BME280;12758;47.890;11.694;2023-10-13T05:04:47;94008.28;;;17.59;72.58
24610;BME280;12758;47.890;11.694;2023-10-13T05:07:31;94012.63;;;17.60;72.58
24610;BME280;12758;47.890;11.694;2023-10-13T05:10:17;94007.09;;;17.56;72.49
24610;BME280;12758;47.890;11.694;2023-10-13T05:13:01;94014.16;;;17.57;72.67
24610;BME280;12758;47.890;11.694;2023-10-13T05:15:46;94010.97;;;17.55;72.50
24610;BME280;12758;47.890;11.694;2023-10-13T05:18:31;94014.88;;;17.54;72.68
24610;BME280;12758;47.890;11.694;2023-10-13T05:21:15;94020.38;;;17.54;72.69
24610;BME280;12758;47.890;11.694;2023-10-13T05:23:55;94018.38;;;17.51;72.70
24610;BME280;12758;47.890;11.694;2023-10-13T05:26:40;94017.94;;;17.49;72.62
24610;BME280;12758;47.890;11.694;2023-10-13T05:29:25;94020.66;;;17.49;72.53
24610;BME280;12758;47.890;11.694;2023-10-13T05:32:09;94024.97;;;17.46;72.77
24610;BME280;12758;47.890;11.694;2023-10-13T05:34:53;94017.09;;;17.45;72.94
24610;BME280;12758;47.890;11.694;2023-10-13T05:37:37;94013.91;;;17.43;72.73
24610;BME280;12758;47.890;11.694;2023-10-13T05:40:21;94021.78;;;17.44;72.76
24610;BME280;12758;47.890;11.694;2023-10-13T05:43:06;94021.72;;;17.41;72.60
24610;BME280;12758;47.890;11.694;2023-10-13T05:45:50;94025.34;;;17.22;72.90
24610;BME280;12758;47.890;11.694;2023-10-13T05:48:43;94025.81;;;17.05;72.43
24610;BME280;12758;47.890;11.694;2023-10-13T05:51:38;94021.72;;;16.95;73.35
24610;BME280;12758;47.890;11.694;2023-10-13T05:54:12;94031.81;;;16.91;74.19
24610;BME280;12758;47.890;11.694;2023-10-13T05:56:57;94030.13;;;16.83;74.54
24610;BME280;12758;47.890;11.694;2023-10-13T05:59:42;94025.94;;;16.69;75.45
24610;BME280;12758;47.890;11.694;2023-10-13T06:02:26;94029.53;;;16.54;75.85
24610;BME280;12758;47.890;11.694;2023-10-13T06:05:11;94025.38;;;16.41;77.35
24610;BME280;12758;47.890;11.694;2023-10-13T06:07:56;94029.81;;;16.29;78.49
24610;BME280;12758;47.890;11.694;2023-10-13T06:10:40;94028.56;;;16.07;78.66
24610;BME280;12758;47.890;11.694;2023-10-13T06:13:25;94038.16;;;16.17;79.24
24610;BME280;12758;47.890;11.694;2023-10-13T06:16:11;94039.06;;;16.21;79.76
24610;BME280;12758;47.890;11.694;2023-10-13T06:18:55;94038.34;;;16.24;79.78
24610;BME280;12758;47.890;11.694;2023-10-13T06:21:39;94045.25;;;16.18;79.55
24610;BME280;12758;47.890;11.694;2023-10-13T06:24:24;94038.81;;;16.11;80.07
24610;BME280;12758;47.890;11.694;2023-10-13T06:27:08;94031.81;;;16.13;80.33
24610;BME280;12758;47.890;11.694;2023-10-13T06:29:52;94035.88;;;16.19;79.79
24610;BME280;12758;47.890;11.694;2023-10-13T06:32:20;94034.84;;;16.08;79.75
24610;BME280;12758;47.890;11.694;2023-10-13T06:34:47;94040.00;;;15.94;81.03
24610;BME280;12758;47.890;11.694;2023-10-13T06:37:13;94035.84;;;16.00;81.70
24610;BME280;12758;47.890;11.694;2023-10-13T06:39:49;94035.72;;;16.12;80.40
24610;BME280;12758;47.890;11.694;2023-10-13T06:42:15;94038.88;;;15.79;82.89
24610;BME280;12758;47.890;11.694;2023-10-13T06:44:42;94036.81;;;15.92;83.36
24610;BME280;12758;47.890;11.694;2023-10-13T06:47:10;94048.03;;;15.67;84.67
24610;BME280;12758;47.890;11.694;2023-10-13T06:49:38;94039.06;;;15.86;86.25
24610;BME280;12758;47.890;11.694;2023-10-13T06:52:04;94034.03;;;16.07;85.51
24610;BME280;12758;47.890;11.694;2023-10-13T06:54:32;94033.69;;;16.09;84.92
24610;BME280;12758;47.890;11.694;2023-10-13T06:56:59;94035.34;;;16.14;85.59
24610;BME280;12758;47.890;11.694;2023-10-13T06:59:25;94036.53;;;16.32;85.68
24610;BME280;12758;47.890;11.694;2023-10-13T07:01:52;94034.84;;;16.08;88.22
24610;BME280;12758;47.890;11.694;2023-10-13T07:04:19;94037.88;;;16.03;91.46
24610;BME280;12758;47.890;11.694;2023-10-13T07:06:48;94047.34;;;16.25;90.52
24610;BME280;12758;47.890;11.694;2023-10-13T07:09:14;94046.13;;;16.22;91.57
24610;BME280;12758;47.890;11.694;2023-10-13T07:12:06;94047.16;;;16.18;95.00
24610;BME280;12758;47.890;11.694;2023-10-13T07:14:32;94043.50;;;16.10;96.06
24610;BME280;12758;47.890;11.694;2023-10-13T07:17:00;94045.34;;;15.87;100.00
24610;BME280;12758;47.890;11.694;2023-10-13T07:19:28;94047.97;;;15.99;100.00
24610;BME280;12758;47.890;11.694;2023-10-13T07:21:55;94041.03;;;16.05;100.00
24610;BME280;12758;47.890;11.694;2023-10-13T07:24:24;94047.78;;;15.92;100.00
24610;BME280;12758;47.890;11.694;2023-10-13T07:26:51;94047.78;;;15.92;98.46
24610;BME280;12758;47.890;11.694;2023-10-13T07:29:27;94046.91;;;15.88;99.03
24610;BME280;12758;47.890;11.694;2023-10-13T07:31:53;94049.38;;;15.93;98.40
24610;BME280;12758;47.890;11.694;2023-10-13T07:34:19;94043.91;;;15.93;97.25
24610;BME280;12758;47.890;11.694;2023-10-13T07:36:55;94044.94;;;16.04;96.69
24610;BME280;12758;47.890;11.694;2023-10-13T07:39:25;94036.13;;;15.95;93.11
24610;BME280;12758;47.890;11.694;2023-10-13T07:41:52;94038.28;;;16.05;94.27
24610;BME280;12758;47.890;11.694;2023-10-13T07:44:20;94029.34;;;16.08;92.40
24610;BME280;12758;47.890;11.694;2023-10-13T07:46:51;94045.19;;;16.15;89.70
24610;BME280;12758;47.890;11.694;2023-10-13T07:49:28;94035.28;;;16.10;90.17
24610;BME280;12758;47.890;11.694;2023-10-13T07:51:58;94034.28;;;16.18;90.66
24610;BME280;12758;47.890;11.694;2023-10-13T07:54:26;94036.59;;;16.16;90.67
24610;BME280;12758;47.890;11.694;2023-10-13T07:56:52;94029.81;;;16.29;90.20
24610;BME280;12758;47.890;11.694;2023-10-13T07:59:20;94036.97;;;16.34;91.29
24610;BME280;12758;47.890;11.694;2023-10-13T08:01:47;94033.28;;;16.46;90.17
24610;BME280;12758;47.890;11.694;2023-10-13T08:04:27;94032.56;;;16.49;90.88
24610;BME280;12758;47.890;11.694;2023-10-13T08:06:54;94031.06;;;16.51;92.11
24610;BME280;12758;47.890;11.694;2023-10-13T08:09:28;94027.31;;;16.60;92.64
24610;BME280;12758;47.890;11.694;2023-10-13T08:11:56;94036.16;;;16.72;91.48
24610;BME280;12758;47.890;11.694;2023-10-13T08:14:22;94036.59;;;16.74;90.28
24610;BME280;12758;47.890;11.694;2023-10-13T08:16:54;94035.72;;;16.90;89.10
24610;BME280;12758;47.890;11.694;2023-10-13T08:19:25;94039.03;;;16.99;89.36
24610;BME280;12758;47.890;11.694;2023-10-13T08:21:54;94031.53;;;16.96;91.38
24610;BME280;12758;47.890;11.694;2023-10-13T08:24:23;94028.13;;;17.03;90.60
24610;BME280;12758;47.890;11.694;2023-10-13T08:26:52;94027.34;;;17.02;91.90
24610;BME280;12758;47.890;11.694;2023-10-13T08:29:41;94032.22;;;17.12;89.35
24610;BME280;12758;47.890;11.694;2023-10-13T08:32:30;94026.59;;;17.51;84.57
24610;BME280;12758;47.890;11.694;2023-10-13T08:35:11;94024.41;;;17.60;87.05
24610;BME280;12758;47.890;11.694;2023-10-13T08:37:49;94022.09;;;17.62;87.17
24610;BME280;12758;47.890;11.694;2023-10-13T08:40:30;94018.84;;;17.80;85.29
24610;BME280;12758;47.890;11.694;2023-10-13T08:43:26;94025.59;;;17.86;85.64
24610;BME280;12758;47.890;11.694;2023-10-13T08:46:05;94021.09;;;18.01;81.87
24610;BME280;12758;47.890;11.694;2023-10-13T08:48:34;94018.81;;;18.06;82.03
24610;BME280;12758;47.890;11.694;2023-10-13T08:51:01;94023.47;;;18.02;82.24
24610;BME280;12758;47.890;11.694;2023-10-13T08:53:37;94013.84;;;18.15;81.86
24610;BME280;12758;47.890;11.694;2023-10-13T08:56:17;94022.03;;;18.12;80.11
24610;BME280;12758;47.890;11.694;2023-10-13T08:58:46;94016.69;;;18.23;78.94
24610;BME280;12758;47.890;11.694;2023-10-13T09:01:32;94010.13;;;18.31;80.00
24610;BME280;12758;47.890;11.694;2023-10-13T09:04:03;94020.97;;;18.50;78.34
24610;BME280;12758;47.890;11.694;2023-10-13T09:06:44;94011.72;;;18.66;78.18
24610;BME280;12758;47.890;11.694;2023-10-13T09:09:12;94015.53;;;18.57;78.71
24610;BME280;12758;47.890;11.694;2023-10-13T09:11:53;94009.22;;;18.53;80.31
24610;BME280;12758;47.890;11.694;2023-10-13T09:14:34;94015.84;;;18.82;78.96
24610;BME280;12758;47.890;11.694;2023-10-13T09:17:04;94015.72;;;18.72;80.39
24610;BME280;12758;47.890;11.694;2023-10-13T09:19:46;94010.22;;;18.72;80.07
24610;BME280;12758;47.890;11.694;2023-10-13T09:22:19;94004.25;;;18.66;82.28
24610;BME280;12758;47.890;11.694;2023-10-13T09:24:54;94002.72;;;18.69;82.17
24610;BME280;12758;47.890;11.694;2023-10-13T09:27:24;94001.88;;;18.98;82.12
24610;BME280;12758;47.890;11.694;2023-10-13T09:29:57;93996.97;;;18.81;83.29
24610;BME280;12758;47.890;11.694;2023-10-13T09:32:23;93998.78;;;19.03;83.59
24610;BME280;12758;47.890;11.694;2023-10-13T09:34:49;93990.72;;;19.25;81.68
24610;BME280;12758;47.890;11.694;2023-10-13T09:37:16;93992.00;;;19.38;81.42
24610;BME280;12758;47.890;11.694;2023-10-13T09:39:46;93985.59;;;19.20;80.91
24610;BME280;12758;47.890;11.694;2023-10-13T09:42:18;93991.31;;;19.48;77.04
24610;BME280;12758;47.890;11.694;2023-10-13T09:44:45;93985.91;;;19.63;74.46
24610;BME280;12758;47.890;11.694;2023-10-13T09:47:20;93983.88;;;19.52;74.86
24610;BME280;12758;47.890;11.694;2023-10-13T09:49:50;93983.31;;;19.81;72.63
24610;BME280;12758;47.890;11.694;2023-10-13T09:52:23;93975.63;;;20.15;67.98
24610;BME280;12758;47.890;11.694;2023-10-13T09:54:55;93976.97;;;20.42;66.30
24610;BME280;12758;47.890;11.694;2023-10-13T09:57:28;93978.56;;;20.51;68.61
24610;BME280;12758;47.890;11.694;2023-10-13T10:00:02;93966.84;;;20.68;65.95
24610;BME280;12758;47.890;11.694;2023-10-13T10:02:33;93979.53;;;20.98;65.56
24610;BME280;12758;47.890;11.694;2023-10-13T10:04:59;93968.41;;;20.65;69.45
24610;BME280;12758;47.890;11.694;2023-10-13T10:07:39;93963.75;;;20.91;67.87
24610;BME280;12758;47.890;11.694;2023-10-13T10:10:06;93962.19;;;21.01;65.17
24610;BME280;12758;47.890;11.694;2023-10-13T10:12:38;93962.97;;;20.94;66.64
24610;BME280;12758;47.890;11.694;2023-10-13T10:15:12;93966.88;;;20.89;66.71
24610;BME280;12758;47.890;11.694;2023-10-13T10:17:54;93960.56;;;20.89;63.37
24610;BME280;12758;47.890;11.694;2023-10-13T10:20:28;93960.19;;;20.87;64.73
24610;BME280;12758;47.890;11.694;2023-10-13T10:23:05;93958.97;;;20.77;66.43
24610;BME280;12758;47.890;11.694;2023-10-13T10:25:35;93945.91;;;20.60;64.89
24610;BME280;12758;47.890;11.694;2023-10-13T10:28:04;93953.91;;;21.04;61.58
24610;BME280;12758;47.890;11.694;2023-10-13T10:30:32;93944.06;;;21.07;59.75
24610;BME280;12758;47.890;11.694;2023-10-13T10:33:00;93949.56;;;21.28;59.06
24610;BME280;12758;47.890;11.694;2023-10-13T10:35:29;93939.34;;;21.54;56.69
24610;BME280;12758;47.890;11.694;2023-10-13T10:37:56;93939.72;;;21.63;56.14
24610;BME280;12758;47.890;11.694;2023-10-13T10:40:48;93930.66;;;21.66;55.52
24610;BME280;12758;47.890;11.694;2023-10-13T10:43:17;93936.56;;;21.50;54.93
24610;BME280;12758;47.890;11.694;2023-10-13T10:45:46;93922.78;;;21.57;55.18
24610;BME280;12758;47.890;11.694;2023-10-13T10:48:15;93924.34;;;21.55;54.59
24610;BME280;12758;47.890;11.694;2023-10-13T10:50:44;93928.28;;;21.25;58.26
24610;BME280;12758;47.890;11.694;2023-10-13T10:53:19;93914.84;;;21.63;53.57
24610;BME280;12758;47.890;11.694;2023-10-13T10:55:47;93916.81;;;21.80;53.42
24610;BME280;12758;47.890;11.694;2023-10-13T10:58:14;93909.25;;;22.02;51.93
24610;BME280;12758;47.890;11.694;2023-10-13T11:01:04;93911.66;;;21.97;51.13
24610;BME280;12758;47.890;11.694;2023-10-13T11:03:36;93899.00;;;22.03;51.67
24610;BME280;12758;47.890;11.694;2023-10-13T11:06:06;93903.31;;;22.04;50.53
24610;BME280;12758;47.890;11.694;2023-10-13T11:08:40;93900.53;;;22.18;48.52
24610;BME280;12758;47.890;11.694;2023-10-13T11:11:09;93899.72;;;22.14;48.04
24610;BME280;12758;47.890;11.694;2023-10-13T11:13:43;93893.47;;;22.03;39.52
24610;BME280;12758;47.890;11.694;2023-10-13T11:16:20;93889.47;;;22.11;40.20
24610;BME280;12758;47.890;11.694;2023-10-13T11:19:00;93887.09;;;22.20;38.11
24610;BME280;12758;47.890;11.694;2023-10-13T11:21:29;93875.97;;;22.38;38.24
24610;BME280;12758;47.890;11.694;2023-10-13T11:23:56;93879.69;;;22.76;37.36
24610;BME280;12758;47.890;11.694;2023-10-13T11:26:33;93875.91;;;22.49;40.93
24610;BME280;12758;47.890;11.694;2023-10-13T11:28:59;93886.50;;;22.61;40.27
24610;BME280;12758;47.890;11.694;2023-10-13T11:31:25;93875.63;;;22.92;38.83
24610;BME280;12758;47.890;11.694;2023-10-13T11:33:51;93877.09;;;23.11;37.36
24610;BME280;12758;47.890;11.694;2023-10-13T11:36:22;93867.72;;;22.94;37.65
24610;BME280;12758;47.890;11.694;2023-10-13T11:38:57;93863.63;;;22.50;38.51
24610;BME280;12758;47.890;11.694;2023-10-13T11:41:23;93863.31;;;22.41;37.88
24610;BME280;12758;47.890;11.694;2023-10-13T11:43:50;93853.88;;;22.27;39.42
24610;BME280;12758;47.890;11.694;2023-10-13T11:46:32;93852.53;;;21.55;41.30
24610;BME280;12758;47.890;11.694;2023-10-13T11:49:21;93844.53;;;21.85;40.14
24610;BME280;12758;47.890;11.694;2023-10-13T11:51:59;93842.94;;;21.92;41.19
24610;BME280;12758;47.890;11.694;2023-10-13T11:54:41;93838.72;;;22.53;38.16
24610;BME280;12758;47.890;11.694;2023-10-13T11:57:08;93832.53;;;22.31;39.37
24610;BME280;12758;47.890;11.694;2023-10-13T11:59:34;93827.06;;;22.17;38.20
24610;BME280;12758;47.890;11.694;2023-10-13T12:02:06;93824.94;;;22.43;40.40
24610;BME280;12758;47.890;11.694;2023-10-13T12:05:06;93820.50;;;22.63;38.27
24610;BME280;12758;47.890;11.694;2023-10-13T12:07:38;93823.88;;;23.34;37.69
24610;BME280;12758;47.890;11.694;2023-10-13T12:10:21;93822.72;;;22.83;37.87
24610;BME280;12758;47.890;11.694;2023-10-13T12:13:04;93807.63;;;23.77;34.97
24610;BME280;12758;47.890;11.694;2023-10-13T12:15:35;93812.63;;;23.10;35.66
24610;BME280;12758;47.890;11.694;2023-10-13T12:18:15;93804.66;;;23.57;33.73
24610;BME280;12758;47.890;11.694;2023-10-13T12:20:41;93806.13;;;23.65;35.71
24610;BME280;12758;47.890;11.694;2023-10-13T12:23:12;93793.09;;;23.28;36.50
24610;BME280;12758;47.890;11.694;2023-10-13T12:25:43;93793.91;;;24.28;35.85
24610;BME280;12758;47.890;11.694;2023-10-13T12:28:26;93794.25;;;23.68;35.56
24610;BME280;12758;47.890;11.694;2023-10-13T12:30:55;93785.59;;;23.25;37.96
24610;BME280;12758;47.890;11.694;2023-10-13T12:33:23;93782.19;;;23.86;36.00
24610;BME280;12758;47.890;11.694;2023-10-13T12:35:51;93781.28;;;23.58;38.10
24610;BME280;12758;47.890;11.694;2023-10-13T12:38:30;93774.69;;;23.45;37.02
24610;BME280;12758;47.890;11.694;2023-10-13T12:41:04;93766.47;;;23.38;36.81
24610;BME280;12758;47.890;11.694;2023-10-13T12:43:48;93766.22;;;23.93;35.07
24610;BME280;12758;47.890;11.694;2023-10-13T12:46:32;93771.75;;;23.63;38.33
24610;BME280;12758;47.890;11.694;2023-10-13T12:49:16;93764.81;;;24.43;34.62
24610;BME280;12758;47.890;11.694;2023-10-13T12:52:02;93765.69;;;24.33;35.56
24610;BME280;12758;47.890;11.694;2023-10-13T12:54:29;93758.13;;;24.06;34.31
24610;BME280;12758;47.890;11.694;2023-10-13T12:57:00;93753.34;;;23.42;36.32
24610;BME280;12758;47.890;11.694;2023-10-13T12:59:26;93743.88;;;23.39;35.55
24610;BME280;12758;47.890;11.694;2023-10-13T13:01:53;93741.91;;;22.98;36.64
24610;BME280;12758;47.890;11.694;2023-10-13T13:04:19;93745.44;;;23.44;34.89
24610;BME280;12758;47.890;11.694;2023-10-13T13:06:45;93744.47;;;22.75;37.64
24610;BME280;12758;47.890;11.694;2023-10-13T13:09:12;93743.00;;;22.63;39.09
24610;BME280;12758;47.890;11.694;2023-10-13T13:11:38;93741.50;;;22.55;50.26
24610;BME280;12758;47.890;11.694;2023-10-13T13:14:06;93735.22;;;22.44;53.88
24610;BME280;12758;47.890;11.694;2023-10-13T13:16:33;93734.91;;;22.38;52.89
24610;BME280;12758;47.890;11.694;2023-10-13T13:18:59;93731.34;;;22.38;56.27
24610;BME280;12758;47.890;11.694;2023-10-13T13:21:28;93722.72;;;22.28;56.58